Huvudsida
METAR-TAF:

METAR-TAF

Flygplatser :

Molde flygplats. Årø

Molde, Norge

latitud: 62-45N, longitud: 007-16E, höjd: 0 m

Aktuellt väderrapport

Denna rapport gjordes för 33 minuter sedan, klockan 16:20 UTC
Vind 22 kt från väst/sydväst
Temperatur 3°C
Fuktighet 87%
Tryck 1017 hPa
Sikt 10 km eller mer
Spridda moln på en höjd av 800 ft
Brutna moln på en höjd av 2000 ft
snö, regn

METAR: ENML 251620Z 24022KT 9999 SNRA SCT008 BKN020 03/01 Q1017

Tid: 17:53 (16:53 UTC)

Väderprognos

Denna rapport gjordes för 2 timmar och 53 minuter sedan, klockan 14:00 UTC
Prognos gäller från 25 kl. 15 UTC till 25 kl. 22 UTC
Vind 15 kt från sydväst i byarna ända upp till 25 kt
Sikt 10 km eller mer
Få moln på en höjd av 4000 ft
Brutna moln på en höjd av 6000 ft
Temporärt
från 25 kl. 15 UTC till 25 kl. 20 UTC
Vind 22 kt från nord/nordväst i byarna ända upp till 32 kt
Sikt: 0600 m
på en höjd av 500 ft
snöbyar

TAF: ENML 251400Z 2515/2522 22015G25KT 9999 FEW040 BKN060 TEMPO 2515/2520 33022G32KT 0600 SHSN VV005

Aktuella väderrapporter och prognoser från 4000 flygplatser (METAR- och TAF-rapporter).

De tillgängliga stationerna syns som gula och röda prickar på kartan.

För musen över prickarna för att se namnen på stationerna.

Klicka sedan för att få väderrapporter och prognoser.

För att ändra kartan: Klicka på de gröna knapparna med ett svart kors på för att zooma in; den gröna knappen med ett streck på för att zooma ut; eller på de gröna pilarna för angränsande kartor.


METAR-TAF: